BTK6762 WAAA-WAMM
Flight info
| Callsign | BTK6762 |
|---|---|
| Flight time | 1h 23m |
| Altitude | 37000 |
| Route | VENRU W32 LUANG |
| Aircraft | A320/M-SDE3FGHIRWY/LB1 |
Departure
| Time | 2026-05-04 07:22 |
|---|---|
| Airport | Sultan Hasanuddin International Airport (WAAA) |
Arrival
| Time | 2026-05-04 08:46 |
|---|---|
| Airport | Sam Ratulangi International Airport (WAMM) |
| Time | Latitude | Longitude | Altitude | Speed | Heading |
|---|---|---|---|---|---|
| 2026-05-04 07:13 | -5.07745 | 119.54812 | 38 ft | 4 kts | 332° |
| 2026-05-04 07:13 | -5.07766 | 119.54816 | 38 ft | 2 kts | 30° |
| 2026-05-04 07:14 | -5.07771 | 119.54814 | 39 ft | 0 kts | 30° |
| 2026-05-04 07:16 | -5.07769 | 119.54815 | 38 ft | 2 kts | 30° |
| 2026-05-04 07:16 | -5.07731 | 119.54837 | 39 ft | 10 kts | 30° |
| 2026-05-04 07:16 | -5.07646 | 119.54886 | 41 ft | 18 kts | 30° |
| 2026-05-04 07:17 | -5.07584 | 119.54974 | 41 ft | 9 kts | 82° |
| 2026-05-04 07:17 | -5.07607 | 119.55057 | 41 ft | 16 kts | 121° |
| 2026-05-04 07:17 | -5.07611 | 119.55124 | 41 ft | 0 kts | 69° |
| 2026-05-04 07:18 | -5.07606 | 119.55134 | 41 ft | 5 kts | 56° |
| 2026-05-04 07:18 | -5.07554 | 119.55167 | 41 ft | 13 kts | 30° |
| 2026-05-04 07:18 | -5.07455 | 119.55223 | 41 ft | 20 kts | 29° |
| 2026-05-04 07:18 | -5.07330 | 119.55295 | 41 ft | 23 kts | 30° |
| 2026-05-04 07:19 | -5.07192 | 119.55374 | 41 ft | 26 kts | 29° |
| 2026-05-04 07:19 | -5.07018 | 119.55474 | 41 ft | 32 kts | 31° |
| 2026-05-04 07:19 | -5.06854 | 119.55570 | 41 ft | 22 kts | 30° |
| 2026-05-04 07:19 | -5.06729 | 119.55642 | 41 ft | 22 kts | 30° |
| 2026-05-04 07:20 | -5.06672 | 119.55735 | 41 ft | 16 kts | 107° |
| 2026-05-04 07:20 | -5.06731 | 119.55813 | 41 ft | 13 kts | 129° |
| 2026-05-04 07:20 | -5.06796 | 119.55808 | 41 ft | 10 kts | 211° |
| 2026-05-04 07:20 | -5.06918 | 119.55736 | 40 ft | 47 kts | 211° |
| 2026-05-04 07:22 | -5.13754 | 119.51934 | 2368 ft | 230 kts | 194° |
| 2026-05-04 07:22 | -5.15427 | 119.51789 | 2752 ft | 254 kts | 180° |
| 2026-05-04 07:23 | -5.17240 | 119.51795 | 3399 ft | 266 kts | 179° |
| 2026-05-04 07:23 | -5.19108 | 119.51805 | 4214 ft | 271 kts | 179° |
| 2026-05-04 07:23 | -5.21010 | 119.51815 | 5043 ft | 275 kts | 179° |
| 2026-05-04 07:23 | -5.22938 | 119.51826 | 5893 ft | 279 kts | 178° |
| 2026-05-04 07:24 | -5.24888 | 119.51834 | 6712 ft | 282 kts | 178° |
| 2026-05-04 07:24 | -5.26859 | 119.51842 | 7502 ft | 285 kts | 179° |
| 2026-05-04 07:24 | -5.28850 | 119.51851 | 8309 ft | 288 kts | 179° |
| 2026-05-04 07:24 | -5.30865 | 119.51859 | 9111 ft | 291 kts | 179° |
| 2026-05-04 07:25 | -5.32899 | 119.51865 | 9883 ft | 294 kts | 179° |
| 2026-05-04 07:26 | -5.41581 | 119.62858 | 13059 ft | 368 kts | 91° |
| 2026-05-04 07:27 | -5.41635 | 119.65439 | 13669 ft | 372 kts | 91° |
| 2026-05-04 07:27 | -5.41691 | 119.68076 | 14230 ft | 375 kts | 91° |
| 2026-05-04 07:27 | -5.41749 | 119.70671 | 14782 ft | 378 kts | 91° |
| 2026-05-04 07:27 | -5.41812 | 119.73315 | 15332 ft | 381 kts | 91° |
| 2026-05-04 07:28 | -5.41773 | 119.75978 | 15866 ft | 384 kts | 84° |
| 2026-05-04 07:28 | -5.41254 | 119.78617 | 16390 ft | 388 kts | 73° |
| 2026-05-04 07:28 | -5.40250 | 119.81136 | 16907 ft | 391 kts | 66° |
| 2026-05-04 07:28 | -5.39114 | 119.83623 | 17433 ft | 393 kts | 66° |
| 2026-05-04 07:29 | -5.37976 | 119.86125 | 17947 ft | 396 kts | 66° |
| 2026-05-04 07:29 | -5.36830 | 119.88645 | 18412 ft | 398 kts | 66° |
| 2026-05-04 07:29 | -5.35673 | 119.91184 | 18835 ft | 401 kts | 66° |
| 2026-05-04 07:29 | -5.34512 | 119.93737 | 19240 ft | 403 kts | 66° |
| 2026-05-04 07:30 | -5.33348 | 119.96306 | 19678 ft | 406 kts | 66° |
| 2026-05-04 07:30 | -5.32178 | 119.98886 | 20104 ft | 408 kts | 66° |
| 2026-05-04 07:30 | -5.31000 | 120.01487 | 20534 ft | 410 kts | 66° |
| 2026-05-04 07:30 | -5.29816 | 120.04100 | 20957 ft | 412 kts | 66° |
| 2026-05-04 07:31 | -5.28626 | 120.06721 | 21363 ft | 415 kts | 65° |
| 2026-05-04 07:31 | -5.27419 | 120.09360 | 21764 ft | 417 kts | 65° |
| 2026-05-04 07:33 | -5.19140 | 120.28405 | 24239 ft | 433 kts | 69° |
| 2026-05-04 07:33 | -5.18033 | 120.31230 | 24542 ft | 435 kts | 69° |
| 2026-05-04 07:33 | -5.16916 | 120.34056 | 24828 ft | 437 kts | 69° |
| 2026-05-04 07:33 | -5.15778 | 120.36897 | 25110 ft | 439 kts | 68° |
| 2026-05-04 07:34 | -5.14622 | 120.39745 | 25390 ft | 442 kts | 68° |
| 2026-05-04 07:34 | -5.13473 | 120.42564 | 25660 ft | 444 kts | 68° |
| 2026-05-04 07:34 | -5.12304 | 120.45435 | 25932 ft | 446 kts | 68° |
| 2026-05-04 07:34 | -5.11112 | 120.48311 | 26205 ft | 448 kts | 65° |
| 2026-05-04 07:35 | -5.09572 | 120.51034 | 26464 ft | 451 kts | 56° |
| 2026-05-04 07:35 | -5.07589 | 120.53482 | 26723 ft | 454 kts | 47° |
| 2026-05-04 07:35 | -5.05423 | 120.55795 | 26981 ft | 456 kts | 47° |
| 2026-05-04 07:35 | -5.03252 | 120.58119 | 27241 ft | 458 kts | 47° |
| 2026-05-04 07:36 | -5.01070 | 120.60460 | 27513 ft | 460 kts | 48° |
| 2026-05-04 07:36 | -4.98883 | 120.62812 | 27746 ft | 462 kts | 48° |
| 2026-05-04 07:38 | -4.83326 | 120.79539 | 29420 ft | 475 kts | 48° |
| 2026-05-04 07:38 | -4.81069 | 120.81959 | 29654 ft | 476 kts | 48° |
| 2026-05-04 07:38 | -4.78805 | 120.84385 | 29912 ft | 477 kts | 48° |
| 2026-05-04 07:38 | -4.76539 | 120.86816 | 30195 ft | 476 kts | 48° |
| 2026-05-04 07:39 | -4.74281 | 120.89242 | 30468 ft | 476 kts | 48° |
| 2026-05-04 07:39 | -4.72026 | 120.91667 | 30755 ft | 475 kts | 48° |
| 2026-05-04 07:39 | -4.69775 | 120.94089 | 31030 ft | 475 kts | 48° |
| 2026-05-04 07:39 | -4.67525 | 120.96508 | 31307 ft | 474 kts | 48° |
| 2026-05-04 07:40 | -4.65262 | 120.98850 | 31580 ft | 475 kts | 43° |
| 2026-05-04 07:40 | -4.62636 | 121.00855 | 31856 ft | 476 kts | 32° |
| 2026-05-04 07:40 | -4.59687 | 121.02360 | 32134 ft | 476 kts | 22° |
| 2026-05-04 07:40 | -4.56513 | 121.03318 | 32414 ft | 477 kts | 11° |
| 2026-05-04 07:41 | -4.53222 | 121.03713 | 32695 ft | 477 kts | 3° |
| 2026-05-04 07:41 | -4.49910 | 121.03894 | 32984 ft | 477 kts | 3° |
| 2026-05-04 07:41 | -4.46598 | 121.04077 | 33289 ft | 476 kts | 3° |
| 2026-05-04 07:41 | -4.43291 | 121.04261 | 33601 ft | 476 kts | 3° |
| 2026-05-04 07:42 | -4.39990 | 121.04447 | 33897 ft | 475 kts | 3° |
| 2026-05-04 07:42 | -4.36690 | 121.04634 | 34184 ft | 474 kts | 4° |
| 2026-05-04 07:42 | -4.33400 | 121.04823 | 34455 ft | 473 kts | 4° |
| 2026-05-04 07:42 | -4.30114 | 121.05015 | 34744 ft | 472 kts | 3° |
| 2026-05-04 07:43 | -4.26838 | 121.05205 | 35018 ft | 471 kts | 3° |
| 2026-05-04 07:43 | -4.23567 | 121.05392 | 35288 ft | 470 kts | 3° |
| 2026-05-04 07:43 | -4.20307 | 121.05573 | 35553 ft | 469 kts | 3° |
| 2026-05-04 07:43 | -4.17050 | 121.05752 | 35815 ft | 468 kts | 3° |
| 2026-05-04 07:44 | -4.13803 | 121.05931 | 36077 ft | 467 kts | 3° |
| 2026-05-04 07:44 | -4.10564 | 121.06110 | 36337 ft | 466 kts | 3° |
| 2026-05-04 07:44 | -4.07329 | 121.06292 | 36576 ft | 465 kts | 3° |
| 2026-05-04 07:44 | -4.04102 | 121.06477 | 36789 ft | 465 kts | 3° |
| 2026-05-04 07:45 | -3.97644 | 121.06848 | 36860 ft | 465 kts | 3° |
| 2026-05-04 07:45 | -3.91186 | 121.07221 | 36865 ft | 465 kts | 3° |
| 2026-05-04 07:46 | -3.84765 | 121.07586 | 36873 ft | 465 kts | 3° |
| 2026-05-04 07:46 | -3.78298 | 121.07942 | 36877 ft | 466 kts | 3° |
| 2026-05-04 07:47 | -3.71828 | 121.08306 | 36885 ft | 466 kts | 3° |
| 2026-05-04 07:49 | -3.45905 | 121.09769 | 36906 ft | 467 kts | 3° |
| 2026-05-04 07:49 | -3.39417 | 121.10128 | 36909 ft | 467 kts | 4° |
| 2026-05-04 07:50 | -3.32935 | 121.10499 | 36898 ft | 467 kts | 4° |
| 2026-05-04 07:50 | -3.26452 | 121.10879 | 36900 ft | 467 kts | 4° |
| 2026-05-04 07:51 | -3.19958 | 121.11252 | 36899 ft | 467 kts | 4° |
| 2026-05-04 07:51 | -3.13497 | 121.11812 | 36885 ft | 466 kts | 13° |
| 2026-05-04 07:52 | -3.07532 | 121.14094 | 36885 ft | 462 kts | 32° |
| 2026-05-04 07:52 | -3.02452 | 121.17996 | 36888 ft | 461 kts | 40° |
| 2026-05-04 07:54 | -2.82591 | 121.34259 | 36893 ft | 461 kts | 40° |
| 2026-05-04 07:55 | -2.77641 | 121.38329 | 36895 ft | 461 kts | 40° |
| 2026-05-04 07:55 | -2.72687 | 121.42395 | 36900 ft | 460 kts | 40° |
| 2026-05-04 07:56 | -2.67733 | 121.46447 | 36903 ft | 460 kts | 40° |
| 2026-05-04 07:56 | -2.63624 | 121.49816 | 36907 ft | 460 kts | 40° |
| 2026-05-04 07:57 | -2.57846 | 121.54563 | 36904 ft | 460 kts | 40° |
| 2026-05-04 07:57 | -2.53736 | 121.57934 | 36906 ft | 459 kts | 40° |
| 2026-05-04 07:58 | -2.48797 | 121.61985 | 36907 ft | 459 kts | 40° |
| 2026-05-04 07:58 | -2.43855 | 121.66037 | 36900 ft | 459 kts | 40° |
| 2026-05-04 07:59 | -2.38938 | 121.70104 | 36896 ft | 458 kts | 41° |
| 2026-05-04 07:59 | -2.34124 | 121.74276 | 36891 ft | 458 kts | 42° |
| 2026-05-04 08:00 | -2.29334 | 121.78485 | 36887 ft | 458 kts | 42° |
| 2026-05-04 08:02 | -2.10098 | 121.95110 | 36878 ft | 457 kts | 42° |
| 2026-05-04 08:02 | -2.05294 | 121.99275 | 36873 ft | 457 kts | 42° |
| 2026-05-04 08:03 | -2.00480 | 122.03430 | 36871 ft | 457 kts | 42° |
| 2026-05-04 08:03 | -1.95667 | 122.07585 | 36870 ft | 457 kts | 42° |
| 2026-05-04 08:04 | -1.90855 | 122.11736 | 36869 ft | 457 kts | 42° |
| 2026-05-04 08:04 | -1.86047 | 122.15893 | 36869 ft | 457 kts | 42° |
| 2026-05-04 08:05 | -1.81246 | 122.20047 | 36871 ft | 456 kts | 42° |
| 2026-05-04 08:05 | -1.76450 | 122.24202 | 36871 ft | 456 kts | 42° |
| 2026-05-04 08:06 | -1.71656 | 122.28350 | 36870 ft | 456 kts | 42° |
| 2026-05-04 08:06 | -1.66852 | 122.32488 | 36868 ft | 456 kts | 42° |
| 2026-05-04 08:08 | -1.47667 | 122.49060 | 36862 ft | 456 kts | 42° |
| 2026-05-04 08:11 | -1.26070 | 122.67716 | 36872 ft | 458 kts | 42° |
| 2026-05-04 08:11 | -1.18825 | 122.73963 | 36867 ft | 459 kts | 42° |
| 2026-05-04 08:12 | -1.13989 | 122.78137 | 36865 ft | 460 kts | 42° |
| 2026-05-04 08:12 | -1.09144 | 122.82319 | 36865 ft | 461 kts | 41° |
| 2026-05-04 08:13 | -1.04287 | 122.86516 | 36866 ft | 462 kts | 41° |
| 2026-05-04 08:13 | -0.99427 | 122.90715 | 36869 ft | 462 kts | 42° |
| 2026-05-04 08:14 | -0.94562 | 122.94914 | 36872 ft | 462 kts | 41° |
| 2026-05-04 08:16 | -0.75282 | 123.11856 | 36873 ft | 460 kts | 43° |
| 2026-05-04 08:16 | -0.70492 | 123.16096 | 36872 ft | 460 kts | 43° |
| 2026-05-04 08:17 | -0.65732 | 123.20296 | 36865 ft | 459 kts | 43° |
| 2026-05-04 08:17 | -0.60953 | 123.24521 | 36863 ft | 459 kts | 43° |
| 2026-05-04 08:19 | -0.41818 | 123.41459 | 36850 ft | 460 kts | 43° |
| 2026-05-04 08:20 | -0.37028 | 123.45696 | 36850 ft | 460 kts | 43° |
| 2026-05-04 08:20 | -0.32238 | 123.49932 | 36857 ft | 460 kts | 43° |
| 2026-05-04 08:21 | -0.27438 | 123.54171 | 36859 ft | 460 kts | 43° |
| 2026-05-04 08:21 | -0.22647 | 123.58412 | 36862 ft | 460 kts | 43° |
| 2026-05-04 08:22 | -0.17856 | 123.62656 | 36864 ft | 460 kts | 43° |
| 2026-05-04 08:24 | 0.01267 | 123.79581 | 36876 ft | 460 kts | 43° |
| 2026-05-04 08:24 | 0.06052 | 123.83815 | 36880 ft | 460 kts | 42° |
| 2026-05-04 08:25 | 0.11356 | 123.87394 | 36877 ft | 461 kts | 33° |
| 2026-05-04 08:25 | 0.16830 | 123.90742 | 36888 ft | 461 kts | 33° |
| 2026-05-04 08:27 | 0.38874 | 124.04277 | 32471 ft | 480 kts | 33° |
| 2026-05-04 08:28 | 0.41741 | 124.06034 | 31406 ft | 487 kts | 33° |
| 2026-05-04 08:28 | 0.44631 | 124.07801 | 30465 ft | 488 kts | 33° |
| 2026-05-04 08:28 | 0.47543 | 124.09583 | 29504 ft | 491 kts | 33° |
| 2026-05-04 08:28 | 0.50439 | 124.11358 | 28657 ft | 486 kts | 33° |
| 2026-05-04 08:29 | 0.53318 | 124.13125 | 27769 ft | 485 kts | 33° |
| 2026-05-04 08:29 | 0.56167 | 124.14872 | 27068 ft | 479 kts | 32° |
| 2026-05-04 08:29 | 0.58960 | 124.16582 | 26347 ft | 474 kts | 32° |
| 2026-05-04 08:31 | 0.77972 | 124.28255 | 21629 ft | 442 kts | 32° |
| 2026-05-04 08:33 | 0.95553 | 124.39032 | 17827 ft | 410 kts | 32° |
| 2026-05-04 08:33 | 0.97967 | 124.40511 | 17259 ft | 405 kts | 32° |
| 2026-05-04 08:35 | 1.14483 | 124.50633 | 13237 ft | 394 kts | 32° |
| 2026-05-04 08:35 | 1.16776 | 124.52043 | 12657 ft | 391 kts | 32° |
| 2026-05-04 08:35 | 1.19074 | 124.53474 | 12102 ft | 387 kts | 34° |
| 2026-05-04 08:35 | 1.21060 | 124.55208 | 11898 ft | 373 kts | 49° |
| 2026-05-04 08:37 | 1.25216 | 124.68282 | 10023 ft | 300 kts | 78° |
| 2026-05-04 08:37 | 1.25647 | 124.70323 | 9912 ft | 301 kts | 78° |
| 2026-05-04 08:37 | 1.26082 | 124.72376 | 9365 ft | 304 kts | 78° |
| 2026-05-04 08:38 | 1.26512 | 124.74429 | 8716 ft | 300 kts | 81° |
| 2026-05-04 08:38 | 1.26653 | 124.76489 | 8067 ft | 296 kts | 90° |
| 2026-05-04 08:38 | 1.26683 | 124.78534 | 7431 ft | 293 kts | 90° |
| 2026-05-04 08:40 | 1.27848 | 124.91154 | 5799 ft | 229 kts | 38° |
| 2026-05-04 08:40 | 1.29264 | 124.91789 | 5560 ft | 222 kts | 6° |
| 2026-05-04 08:40 | 1.30792 | 124.91835 | 5169 ft | 219 kts | 0° |
| 2026-05-04 08:41 | 1.32302 | 124.91875 | 4835 ft | 215 kts | 1° |
| 2026-05-04 08:41 | 1.33778 | 124.91927 | 4509 ft | 210 kts | 1° |
| 2026-05-04 08:41 | 1.35222 | 124.91979 | 4206 ft | 205 kts | 1° |
| 2026-05-04 08:41 | 1.36636 | 124.92027 | 3912 ft | 201 kts | 1° |
| 2026-05-04 08:42 | 1.38004 | 124.92073 | 3640 ft | 198 kts | 1° |
| 2026-05-04 08:42 | 1.39366 | 124.92118 | 3365 ft | 194 kts | 1° |
| 2026-05-04 08:42 | 1.40705 | 124.92163 | 3100 ft | 191 kts | 1° |
| 2026-05-04 08:42 | 1.42030 | 124.92207 | 2829 ft | 189 kts | 1° |
| 2026-05-04 08:43 | 1.43336 | 124.92250 | 2563 ft | 187 kts | 1° |
| 2026-05-04 08:43 | 1.44610 | 124.92292 | 2319 ft | 177 kts | 2° |
| 2026-05-04 08:43 | 1.45773 | 124.92331 | 2071 ft | 160 kts | 2° |
| 2026-05-04 08:43 | 1.46844 | 124.92366 | 1846 ft | 149 kts | 2° |
| 2026-05-04 08:44 | 1.47864 | 124.92400 | 1642 ft | 145 kts | 2° |
| 2026-05-04 08:44 | 1.48865 | 124.92433 | 1432 ft | 143 kts | 2° |
| 2026-05-04 08:46 | 1.54997 | 124.92632 | 338 ft | 23 kts | 3° |
| 2026-05-04 08:46 | 1.55191 | 124.92640 | 335 ft | 37 kts | 1° |
| 2026-05-04 08:46 | 1.55461 | 124.92647 | 338 ft | 35 kts | 2° |
| 2026-05-04 08:46 | 1.55647 | 124.92637 | 333 ft | 16 kts | 319° |
| 2026-05-04 08:47 | 1.55672 | 124.92566 | 336 ft | 9 kts | 268° |
| 2026-05-04 08:47 | 1.55661 | 124.92505 | 336 ft | 11 kts | 234° |
| 2026-05-04 08:47 | 1.55573 | 124.92488 | 336 ft | 16 kts | 181° |
| 2026-05-04 08:47 | 1.55450 | 124.92485 | 336 ft | 19 kts | 180° |
| 2026-05-04 08:48 | 1.55356 | 124.92481 | 331 ft | 22 kts | 181° |
| 2026-05-04 08:48 | 1.55192 | 124.92476 | 336 ft | 26 kts | 181° |
| 2026-05-04 08:48 | 1.55030 | 124.92470 | 336 ft | 21 kts | 182° |
| 2026-05-04 08:48 | 1.54817 | 124.92463 | 334 ft | 26 kts | 181° |
| 2026-05-04 08:49 | 1.54654 | 124.92458 | 336 ft | 21 kts | 181° |
| 2026-05-04 08:50 | 1.54194 | 124.92340 | 336 ft | 0 kts | 272° |
| 2026-05-04 09:01 | 1.54194 | 124.92339 | 336 ft | 0 kts | 272° |